sensor_id;sensor_type;location;lat;lon;timestamp;P1;durP1;ratioP1;P2;durP2;ratioP2
14306;SDS011;7237;49.500;11.400;2023-11-21T00:00:47;0.80;;;0.73;;
14306;SDS011;7237;49.500;11.400;2023-11-21T00:03:14;2.03;;;0.70;;
14306;SDS011;7237;49.500;11.400;2023-11-21T00:05:43;2.37;;;0.70;;
14306;SDS011;7237;49.500;11.400;2023-11-21T00:08:10;2.40;;;0.60;;
14306;SDS011;7237;49.500;11.400;2023-11-21T00:10:37;1.73;;;1.00;;
14306;SDS011;7237;49.500;11.400;2023-11-21T00:13:04;1.23;;;0.57;;
14306;SDS011;7237;49.500;11.400;2023-11-21T00:15:31;1.20;;;0.70;;
14306;SDS011;7237;49.500;11.400;2023-11-21T00:17:58;1.27;;;1.00;;
14306;SDS011;7237;49.500;11.400;2023-11-21T00:20:25;1.87;;;0.70;;
14306;SDS011;7237;49.500;11.400;2023-11-21T00:22:54;1.23;;;0.80;;
14306;SDS011;7237;49.500;11.400;2023-11-21T00:25:21;1.80;;;0.80;;
14306;SDS011;7237;49.500;11.400;2023-11-21T00:27:48;0.77;;;0.70;;
14306;SDS011;7237;49.500;11.400;2023-11-21T00:30:15;0.60;;;0.50;;
14306;SDS011;7237;49.500;11.400;2023-11-21T00:32:42;0.93;;;0.47;;
14306;SDS011;7237;49.500;11.400;2023-11-21T00:35:10;0.80;;;0.60;;
14306;SDS011;7237;49.500;11.400;2023-11-21T00:37:37;1.53;;;0.63;;
14306;SDS011;7237;49.500;11.400;2023-11-21T00:40:06;2.30;;;0.70;;
14306;SDS011;7237;49.500;11.400;2023-11-21T00:42:34;1.10;;;0.60;;
14306;SDS011;7237;49.500;11.400;2023-11-21T00:45:01;1.13;;;0.80;;
14306;SDS011;7237;49.500;11.400;2023-11-21T00:47:28;1.27;;;0.67;;
14306;SDS011;7237;49.500;11.400;2023-11-21T00:49:55;2.17;;;0.90;;
14306;SDS011;7237;49.500;11.400;2023-11-21T00:52:23;0.93;;;0.80;;
14306;SDS011;7237;49.500;11.400;2023-11-21T00:54:50;0.97;;;0.70;;
14306;SDS011;7237;49.500;11.400;2023-11-21T00:57:18;0.90;;;0.63;;
14306;SDS011;7237;49.500;11.400;2023-11-21T00:59:45;0.90;;;0.70;;
14306;SDS011;7237;49.500;11.400;2023-11-21T01:02:12;2.50;;;0.80;;
14306;SDS011;7237;49.500;11.400;2023-11-21T01:04:39;1.40;;;0.60;;
14306;SDS011;7237;49.500;11.400;2023-11-21T01:07:06;1.17;;;0.83;;
14306;SDS011;7237;49.500;11.400;2023-11-21T01:09:33;0.60;;;0.60;;
14306;SDS011;7237;49.500;11.400;2023-11-21T01:12:00;1.33;;;0.73;;
14306;SDS011;7237;49.500;11.400;2023-11-21T01:14:29;1.70;;;0.80;;
14306;SDS011;7237;49.500;11.400;2023-11-21T01:16:56;2.63;;;0.70;;
14306;SDS011;7237;49.500;11.400;2023-11-21T01:19:23;1.07;;;0.60;;
14306;SDS011;7237;49.500;11.400;2023-11-21T01:21:50;2.03;;;0.80;;
14306;SDS011;7237;49.500;11.400;2023-11-21T01:24:18;0.80;;;0.60;;
14306;SDS011;7237;49.500;11.400;2023-11-21T01:26:45;1.53;;;0.77;;
14306;SDS011;7237;49.500;11.400;2023-11-21T01:29:12;0.53;;;0.47;;
14306;SDS011;7237;49.500;11.400;2023-11-21T01:31:41;0.87;;;0.60;;
14306;SDS011;7237;49.500;11.400;2023-11-21T01:34:08;3.13;;;0.70;;
14306;SDS011;7237;49.500;11.400;2023-11-21T01:36:35;1.03;;;0.53;;
14306;SDS011;7237;49.500;11.400;2023-11-21T01:39:02;1.67;;;0.57;;
14306;SDS011;7237;49.500;11.400;2023-11-21T01:41:33;0.60;;;0.60;;
14306;SDS011;7237;49.500;11.400;2023-11-21T01:44:02;1.33;;;0.80;;
14306;SDS011;7237;49.500;11.400;2023-11-21T01:46:32;0.70;;;0.70;;
14306;SDS011;7237;49.500;11.400;2023-11-21T01:49:01;2.10;;;0.90;;
14306;SDS011;7237;49.500;11.400;2023-11-21T01:51:28;0.70;;;0.70;;
14306;SDS011;7237;49.500;11.400;2023-11-21T01:53:56;2.30;;;0.60;;
14306;SDS011;7237;49.500;11.400;2023-11-21T01:56:24;1.67;;;0.80;;
14306;SDS011;7237;49.500;11.400;2023-11-21T01:58:51;1.20;;;0.70;;
14306;SDS011;7237;49.500;11.400;2023-11-21T02:01:19;0.60;;;0.60;;
14306;SDS011;7237;49.500;11.400;2023-11-21T02:03:46;1.03;;;0.70;;
14306;SDS011;7237;49.500;11.400;2023-11-21T02:06:14;0.90;;;0.80;;
14306;SDS011;7237;49.500;11.400;2023-11-21T02:08:41;0.90;;;0.60;;
14306;SDS011;7237;49.500;11.400;2023-11-21T02:11:09;0.63;;;0.50;;
14306;SDS011;7237;49.500;11.400;2023-11-21T02:13:37;1.23;;;0.80;;
14306;SDS011;7237;49.500;11.400;2023-11-21T02:16:08;1.40;;;0.70;;
14306;SDS011;7237;49.500;11.400;2023-11-21T02:18:35;0.67;;;0.67;;
14306;SDS011;7237;49.500;11.400;2023-11-21T02:21:04;1.20;;;0.70;;
14306;SDS011;7237;49.500;11.400;2023-11-21T02:23:32;2.07;;;0.80;;
14306;SDS011;7237;49.500;11.400;2023-11-21T02:25:59;3.10;;;0.83;;
14306;SDS011;7237;49.500;11.400;2023-11-21T02:28:29;2.23;;;0.70;;
14306;SDS011;7237;49.500;11.400;2023-11-21T02:30:56;1.97;;;0.60;;
14306;SDS011;7237;49.500;11.400;2023-11-21T02:33:24;0.87;;;0.80;;
14306;SDS011;7237;49.500;11.400;2023-11-21T02:35:51;1.37;;;0.87;;
14306;SDS011;7237;49.500;11.400;2023-11-21T02:38:19;3.70;;;0.90;;
14306;SDS011;7237;49.500;11.400;2023-11-21T02:40:48;1.80;;;1.10;;
14306;SDS011;7237;49.500;11.400;2023-11-21T02:43:15;0.93;;;0.80;;
14306;SDS011;7237;49.500;11.400;2023-11-21T02:45:42;1.50;;;0.90;;
14306;SDS011;7237;49.500;11.400;2023-11-21T02:48:09;0.80;;;0.80;;
14306;SDS011;7237;49.500;11.400;2023-11-21T02:50:36;1.27;;;1.03;;
14306;SDS011;7237;49.500;11.400;2023-11-21T02:53:03;2.03;;;0.80;;
14306;SDS011;7237;49.500;11.400;2023-11-21T02:55:31;0.97;;;0.87;;
14306;SDS011;7237;49.500;11.400;2023-11-21T02:58:01;2.20;;;0.70;;
14306;SDS011;7237;49.500;11.400;2023-11-21T03:00:29;0.70;;;0.70;;
14306;SDS011;7237;49.500;11.400;2023-11-21T03:02:56;6.83;;;0.60;;
14306;SDS011;7237;49.500;11.400;2023-11-21T03:05:23;0.73;;;0.70;;
14306;SDS011;7237;49.500;11.400;2023-11-21T03:07:50;1.57;;;0.63;;
14306;SDS011;7237;49.500;11.400;2023-11-21T03:10:17;0.47;;;0.40;;
14306;SDS011;7237;49.500;11.400;2023-11-21T03:12:44;1.20;;;0.60;;
14306;SDS011;7237;49.500;11.400;2023-11-21T03:15:13;0.90;;;0.50;;
14306;SDS011;7237;49.500;11.400;2023-11-21T03:17:40;0.97;;;0.70;;
14306;SDS011;7237;49.500;11.400;2023-11-21T03:20:07;2.00;;;0.60;;
14306;SDS011;7237;49.500;11.400;2023-11-21T03:22:36;1.00;;;0.60;;
14306;SDS011;7237;49.500;11.400;2023-11-21T03:25:03;1.57;;;0.70;;
14306;SDS011;7237;49.500;11.400;2023-11-21T03:27:31;2.07;;;0.77;;
14306;SDS011;7237;49.500;11.400;2023-11-21T03:29:58;1.13;;;0.83;;
14306;SDS011;7237;49.500;11.400;2023-11-21T03:32:26;1.93;;;1.00;;
14306;SDS011;7237;49.500;11.400;2023-11-21T03:34:54;0.93;;;0.60;;
14306;SDS011;7237;49.500;11.400;2023-11-21T03:37:22;1.83;;;0.90;;
14306;SDS011;7237;49.500;11.400;2023-11-21T03:39:49;0.83;;;0.73;;
14306;SDS011;7237;49.500;11.400;2023-11-21T03:42:16;0.83;;;0.73;;
14306;SDS011;7237;49.500;11.400;2023-11-21T03:44:43;0.70;;;0.50;;
14306;SDS011;7237;49.500;11.400;2023-11-21T03:47:11;1.63;;;0.60;;
14306;SDS011;7237;49.500;11.400;2023-11-21T03:49:39;1.47;;;0.83;;
14306;SDS011;7237;49.500;11.400;2023-11-21T03:52:06;0.93;;;0.70;;
14306;SDS011;7237;49.500;11.400;2023-11-21T03:54:34;1.47;;;0.67;;
14306;SDS011;7237;49.500;11.400;2023-11-21T03:57:02;1.10;;;0.90;;
14306;SDS011;7237;49.500;11.400;2023-11-21T03:59:29;1.07;;;0.53;;
14306;SDS011;7237;49.500;11.400;2023-11-21T04:01:56;2.20;;;0.80;;
14306;SDS011;7237;49.500;11.400;2023-11-21T04:04:23;0.70;;;0.70;;
14306;SDS011;7237;49.500;11.400;2023-11-21T04:06:52;1.47;;;0.90;;
14306;SDS011;7237;49.500;11.400;2023-11-21T04:09:19;1.13;;;1.00;;
14306;SDS011;7237;49.500;11.400;2023-11-21T04:11:49;3.00;;;0.80;;
14306;SDS011;7237;49.500;11.400;2023-11-21T04:14:16;1.33;;;0.80;;
14306;SDS011;7237;49.500;11.400;2023-11-21T04:16:43;1.03;;;0.70;;
14306;SDS011;7237;49.500;11.400;2023-11-21T04:19:10;2.50;;;0.80;;
14306;SDS011;7237;49.500;11.400;2023-11-21T04:21:39;0.97;;;0.77;;
14306;SDS011;7237;49.500;11.400;2023-11-21T04:24:08;1.17;;;0.83;;
14306;SDS011;7237;49.500;11.400;2023-11-21T04:26:35;1.10;;;0.80;;
14306;SDS011;7237;49.500;11.400;2023-11-21T04:29:02;1.77;;;0.80;;
14306;SDS011;7237;49.500;11.400;2023-11-21T04:31:29;4.33;;;0.80;;
14306;SDS011;7237;49.500;11.400;2023-11-21T04:33:56;1.10;;;1.03;;
14306;SDS011;7237;49.500;11.400;2023-11-21T04:36:24;1.03;;;0.77;;
14306;SDS011;7237;49.500;11.400;2023-11-21T04:38:51;1.33;;;0.80;;
14306;SDS011;7237;49.500;11.400;2023-11-21T04:41:19;1.47;;;0.73;;
14306;SDS011;7237;49.500;11.400;2023-11-21T04:43:46;3.73;;;0.90;;
14306;SDS011;7237;49.500;11.400;2023-11-21T04:46:14;1.43;;;1.13;;
14306;SDS011;7237;49.500;11.400;2023-11-21T04:48:41;2.33;;;1.20;;
14306;SDS011;7237;49.500;11.400;2023-11-21T04:51:08;1.33;;;0.97;;
14306;SDS011;7237;49.500;11.400;2023-11-21T04:53:36;2.00;;;1.20;;
14306;SDS011;7237;49.500;11.400;2023-11-21T04:56:04;4.80;;;1.23;;
14306;SDS011;7237;49.500;11.400;2023-11-21T04:58:33;5.20;;;1.23;;
14306;SDS011;7237;49.500;11.400;2023-11-21T05:01:00;1.50;;;1.03;;
14306;SDS011;7237;49.500;11.400;2023-11-21T05:03:28;0.93;;;0.93;;
14306;SDS011;7237;49.500;11.400;2023-11-21T05:05:55;1.30;;;1.20;;
14306;SDS011;7237;49.500;11.400;2023-11-21T05:08:23;1.80;;;1.63;;
14306;SDS011;7237;49.500;11.400;2023-11-21T05:10:50;1.67;;;1.33;;
14306;SDS011;7237;49.500;11.400;2023-11-21T05:13:18;1.90;;;1.17;;
14306;SDS011;7237;49.500;11.400;2023-11-21T05:15:46;1.47;;;1.37;;
14306;SDS011;7237;49.500;11.400;2023-11-21T05:18:14;3.30;;;1.13;;
14306;SDS011;7237;49.500;11.400;2023-11-21T05:20:41;1.43;;;1.17;;
14306;SDS011;7237;49.500;11.400;2023-11-21T05:23:08;1.10;;;1.10;;
14306;SDS011;7237;49.500;11.400;2023-11-21T05:25:35;1.60;;;1.47;;
14306;SDS011;7237;49.500;11.400;2023-11-21T05:28:02;1.50;;;1.40;;
14306;SDS011;7237;49.500;11.400;2023-11-21T05:30:29;2.00;;;1.60;;
14306;SDS011;7237;49.500;11.400;2023-11-21T05:32:58;1.47;;;1.37;;
14306;SDS011;7237;49.500;11.400;2023-11-21T05:35:25;2.63;;;1.80;;
14306;SDS011;7237;49.500;11.400;2023-11-21T05:37:52;3.37;;;2.03;;
14306;SDS011;7237;49.500;11.400;2023-11-21T05:40:19;3.70;;;2.13;;
14306;SDS011;7237;49.500;11.400;2023-11-21T05:42:47;2.47;;;1.70;;
14306;SDS011;7237;49.500;11.400;2023-11-21T05:45:14;2.53;;;1.70;;
14306;SDS011;7237;49.500;11.400;2023-11-21T05:47:42;1.87;;;1.77;;
14306;SDS011;7237;49.500;11.400;2023-11-21T05:50:12;3.20;;;1.73;;
14306;SDS011;7237;49.500;11.400;2023-11-21T05:52:40;1.70;;;1.60;;
14306;SDS011;7237;49.500;11.400;2023-11-21T05:55:08;3.13;;;2.03;;
14306;SDS011;7237;49.500;11.400;2023-11-21T05:57:35;3.03;;;2.17;;
14306;SDS011;7237;49.500;11.400;2023-11-21T06:00:03;2.20;;;2.00;;
14306;SDS011;7237;49.500;11.400;2023-11-21T06:02:36;2.27;;;2.07;;
14306;SDS011;7237;49.500;11.400;2023-11-21T06:05:04;2.23;;;1.97;;
14306;SDS011;7237;49.500;11.400;2023-11-21T06:07:32;2.17;;;2.07;;
14306;SDS011;7237;49.500;11.400;2023-11-21T06:10:00;2.70;;;2.50;;
14306;SDS011;7237;49.500;11.400;2023-11-21T06:12:28;2.43;;;2.10;;
14306;SDS011;7237;49.500;11.400;2023-11-21T06:14:55;2.73;;;2.33;;
14306;SDS011;7237;49.500;11.400;2023-11-21T06:17:22;2.33;;;2.13;;
14306;SDS011;7237;49.500;11.400;2023-11-21T06:19:50;4.07;;;2.20;;
14306;SDS011;7237;49.500;11.400;2023-11-21T06:22:18;2.47;;;2.27;;
14306;SDS011;7237;49.500;11.400;2023-11-21T06:24:46;4.13;;;2.47;;
14306;SDS011;7237;49.500;11.400;2023-11-21T06:27:13;2.60;;;2.40;;
14306;SDS011;7237;49.500;11.400;2023-11-21T06:29:41;3.50;;;2.63;;
14306;SDS011;7237;49.500;11.400;2023-11-21T06:32:08;2.73;;;2.50;;
14306;SDS011;7237;49.500;11.400;2023-11-21T06:34:35;4.67;;;2.70;;
14306;SDS011;7237;49.500;11.400;2023-11-21T06:37:02;2.80;;;2.60;;
14306;SDS011;7237;49.500;11.400;2023-11-21T06:39:29;4.07;;;3.13;;
14306;SDS011;7237;49.500;11.400;2023-11-21T06:41:58;2.90;;;2.70;;
14306;SDS011;7237;49.500;11.400;2023-11-21T06:44:25;6.33;;;2.90;;
14306;SDS011;7237;49.500;11.400;2023-11-21T06:46:51;3.10;;;2.80;;
14306;SDS011;7237;49.500;11.400;2023-11-21T06:49:19;3.53;;;3.23;;
14306;SDS011;7237;49.500;11.400;2023-11-21T06:51:46;3.77;;;3.40;;
14306;SDS011;7237;49.500;11.400;2023-11-21T06:54:13;6.27;;;2.90;;
14306;SDS011;7237;49.500;11.400;2023-11-21T06:56:40;3.73;;;3.00;;
14306;SDS011;7237;49.500;11.400;2023-11-21T06:59:09;3.00;;;2.80;;
14306;SDS011;7237;49.500;11.400;2023-11-21T07:01:36;3.07;;;2.83;;
14306;SDS011;7237;49.500;11.400;2023-11-21T07:04:06;3.80;;;3.50;;
14306;SDS011;7237;49.500;11.400;2023-11-21T07:06:34;3.93;;;3.50;;
14306;SDS011;7237;49.500;11.400;2023-11-21T07:09:03;3.97;;;3.23;;
14306;SDS011;7237;49.500;11.400;2023-11-21T07:11:30;4.93;;;3.43;;
14306;SDS011;7237;49.500;11.400;2023-11-21T07:13:57;4.90;;;3.60;;
14306;SDS011;7237;49.500;11.400;2023-11-21T07:16:26;4.57;;;3.40;;
14306;SDS011;7237;49.500;11.400;2023-11-21T07:18:55;3.57;;;3.30;;
14306;SDS011;7237;49.500;11.400;2023-11-21T07:21:22;4.43;;;4.00;;
14306;SDS011;7237;49.500;11.400;2023-11-21T07:23:49;6.20;;;3.97;;
14306;SDS011;7237;49.500;11.400;2023-11-21T07:26:16;5.30;;;4.40;;
14306;SDS011;7237;49.500;11.400;2023-11-21T07:28:44;4.43;;;3.73;;
14306;SDS011;7237;49.500;11.400;2023-11-21T07:31:11;5.53;;;4.30;;
14306;SDS011;7237;49.500;11.400;2023-11-21T07:33:40;4.37;;;3.67;;
14306;SDS011;7237;49.500;11.400;2023-11-21T07:36:07;5.13;;;3.87;;
14306;SDS011;7237;49.500;11.400;2023-11-21T07:38:35;5.37;;;4.17;;
14306;SDS011;7237;49.500;11.400;2023-11-21T07:41:02;5.10;;;3.60;;
14306;SDS011;7237;49.500;11.400;2023-11-21T07:43:29;4.63;;;3.43;;
14306;SDS011;7237;49.500;11.400;2023-11-21T07:46:00;2.87;;;2.67;;
14306;SDS011;7237;49.500;11.400;2023-11-21T07:48:27;3.60;;;2.80;;
14306;SDS011;7237;49.500;11.400;2023-11-21T07:50:56;2.53;;;2.10;;
14306;SDS011;7237;49.500;11.400;2023-11-21T07:53:24;2.13;;;1.93;;
14306;SDS011;7237;49.500;11.400;2023-11-21T07:55:55;2.70;;;2.20;;
14306;SDS011;7237;49.500;11.400;2023-11-21T07:58:22;3.13;;;2.60;;
14306;SDS011;7237;49.500;11.400;2023-11-21T08:00:49;2.73;;;2.00;;
14306;SDS011;7237;49.500;11.400;2023-11-21T08:03:17;2.07;;;1.97;;
14306;SDS011;7237;49.500;11.400;2023-11-21T08:05:44;2.50;;;2.30;;
14306;SDS011;7237;49.500;11.400;2023-11-21T08:08:12;2.50;;;2.30;;
14306;SDS011;7237;49.500;11.400;2023-11-21T08:10:40;2.60;;;2.40;;
14306;SDS011;7237;49.500;11.400;2023-11-21T08:13:07;2.33;;;2.13;;
14306;SDS011;7237;49.500;11.400;2023-11-21T08:15:39;2.30;;;2.10;;
14306;SDS011;7237;49.500;11.400;2023-11-21T08:18:11;2.53;;;2.33;;
14306;SDS011;7237;49.500;11.400;2023-11-21T08:20:39;2.20;;;2.00;;
14306;SDS011;7237;49.500;11.400;2023-11-21T08:23:06;2.50;;;2.07;;
14306;SDS011;7237;49.500;11.400;2023-11-21T08:25:35;2.53;;;2.10;;
14306;SDS011;7237;49.500;11.400;2023-11-21T08:28:02;2.33;;;2.13;;
14306;SDS011;7237;49.500;11.400;2023-11-21T08:30:30;3.50;;;2.60;;
14306;SDS011;7237;49.500;11.400;2023-11-21T08:32:57;3.33;;;2.70;;
14306;SDS011;7237;49.500;11.400;2023-11-21T08:35:24;2.60;;;2.40;;
14306;SDS011;7237;49.500;11.400;2023-11-21T08:37:51;2.60;;;2.40;;
14306;SDS011;7237;49.500;11.400;2023-11-21T08:40:19;3.47;;;2.40;;
14306;SDS011;7237;49.500;11.400;2023-11-21T08:42:48;2.83;;;2.47;;
14306;SDS011;7237;49.500;11.400;2023-11-21T08:45:16;2.80;;;2.57;;
14306;SDS011;7237;49.500;11.400;2023-11-21T08:47:44;2.90;;;2.60;;
14306;SDS011;7237;49.500;11.400;2023-11-21T08:50:11;3.03;;;2.73;;
14306;SDS011;7237;49.500;11.400;2023-11-21T08:52:38;3.20;;;2.73;;
14306;SDS011;7237;49.500;11.400;2023-11-21T08:55:06;3.57;;;2.93;;
14306;SDS011;7237;49.500;11.400;2023-11-21T08:57:33;3.47;;;2.80;;
14306;SDS011;7237;49.500;11.400;2023-11-21T09:00:02;2.97;;;2.77;;
14306;SDS011;7237;49.500;11.400;2023-11-21T09:02:32;4.90;;;3.37;;
14306;SDS011;7237;49.500;11.400;2023-11-21T09:05:00;2.77;;;2.57;;
14306;SDS011;7237;49.500;11.400;2023-11-21T09:07:28;2.93;;;2.63;;
14306;SDS011;7237;49.500;11.400;2023-11-21T09:09:55;3.93;;;3.03;;
14306;SDS011;7237;49.500;11.400;2023-11-21T09:12:22;4.20;;;2.77;;
14306;SDS011;7237;49.500;11.400;2023-11-21T09:14:51;3.57;;;2.90;;
14306;SDS011;7237;49.500;11.400;2023-11-21T09:17:19;3.30;;;3.07;;
14306;SDS011;7237;49.500;11.400;2023-11-21T09:19:46;3.67;;;2.87;;
14306;SDS011;7237;49.500;11.400;2023-11-21T09:22:16;4.43;;;3.47;;
14306;SDS011;7237;49.500;11.400;2023-11-21T09:24:43;3.80;;;3.23;;
14306;SDS011;7237;49.500;11.400;2023-11-21T09:27:10;3.93;;;3.60;;
14306;SDS011;7237;49.500;11.400;2023-11-21T09:29:37;5.43;;;3.67;;
14306;SDS011;7237;49.500;11.400;2023-11-21T09:32:05;3.63;;;3.33;;
14306;SDS011;7237;49.500;11.400;2023-11-21T09:34:34;3.93;;;3.10;;
14306;SDS011;7237;49.500;11.400;2023-11-21T09:37:03;4.47;;;3.83;;
14306;SDS011;7237;49.500;11.400;2023-11-21T09:39:31;3.70;;;3.40;;
14306;SDS011;7237;49.500;11.400;2023-11-21T09:41:59;4.47;;;3.80;;
14306;SDS011;7237;49.500;11.400;2023-11-21T09:44:32;4.30;;;3.77;;
14306;SDS011;7237;49.500;11.400;2023-11-21T09:47:02;3.80;;;3.43;;
14306;SDS011;7237;49.500;11.400;2023-11-21T09:49:29;5.07;;;4.17;;
14306;SDS011;7237;49.500;11.400;2023-11-21T09:52:01;4.27;;;3.53;;
14306;SDS011;7237;49.500;11.400;2023-11-21T09:54:29;4.63;;;3.50;;
14306;SDS011;7237;49.500;11.400;2023-11-21T09:56:57;4.13;;;3.77;;
14306;SDS011;7237;49.500;11.400;2023-11-21T09:59:24;3.73;;;3.43;;
14306;SDS011;7237;49.500;11.400;2023-11-21T10:01:54;3.43;;;3.13;;
14306;SDS011;7237;49.500;11.400;2023-11-21T10:04:23;4.23;;;3.23;;
14306;SDS011;7237;49.500;11.400;2023-11-21T10:06:51;3.90;;;3.50;;
14306;SDS011;7237;49.500;11.400;2023-11-21T10:09:21;3.50;;;3.20;;
14306;SDS011;7237;49.500;11.400;2023-11-21T10:11:49;4.93;;;3.20;;
14306;SDS011;7237;49.500;11.400;2023-11-21T10:14:17;3.70;;;3.40;;
14306;SDS011;7237;49.500;11.400;2023-11-21T10:16:46;3.17;;;2.97;;
14306;SDS011;7237;49.500;11.400;2023-11-21T10:19:14;3.40;;;3.07;;
14306;SDS011;7237;49.500;11.400;2023-11-21T10:21:43;3.13;;;2.87;;
14306;SDS011;7237;49.500;11.400;2023-11-21T10:24:10;3.00;;;2.63;;
14306;SDS011;7237;49.500;11.400;2023-11-21T10:26:39;3.90;;;2.40;;
14306;SDS011;7237;49.500;11.400;2023-11-21T10:29:06;3.17;;;2.20;;
14306;SDS011;7237;49.500;11.400;2023-11-21T10:31:34;3.47;;;1.97;;
14306;SDS011;7237;49.500;11.400;2023-11-21T10:34:13;2.67;;;2.30;;
14306;SDS011;7237;49.500;11.400;2023-11-21T10:36:41;3.40;;;2.33;;
14306;SDS011;7237;49.500;11.400;2023-11-21T10:39:08;2.77;;;2.53;;
14306;SDS011;7237;49.500;11.400;2023-11-21T10:41:35;2.87;;;2.50;;
14306;SDS011;7237;49.500;11.400;2023-11-21T10:44:04;2.50;;;2.30;;
14306;SDS011;7237;49.500;11.400;2023-11-21T10:46:32;2.73;;;2.20;;
14306;SDS011;7237;49.500;11.400;2023-11-21T10:49:00;4.17;;;2.87;;
14306;SDS011;7237;49.500;11.400;2023-11-21T10:51:27;2.97;;;2.37;;
14306;SDS011;7237;49.500;11.400;2023-11-21T10:53:54;2.50;;;2.10;;
14306;SDS011;7237;49.500;11.400;2023-11-21T10:56:23;3.10;;;2.50;;
14306;SDS011;7237;49.500;11.400;2023-11-21T10:58:50;2.60;;;2.40;;
14306;SDS011;7237;49.500;11.400;2023-11-21T11:01:18;2.60;;;2.40;;
14306;SDS011;7237;49.500;11.400;2023-11-21T11:03:47;2.30;;;2.07;;
14306;SDS011;7237;49.500;11.400;2023-11-21T11:06:14;2.50;;;2.30;;
14306;SDS011;7237;49.500;11.400;2023-11-21T11:08:42;2.97;;;2.77;;
14306;SDS011;7237;49.500;11.400;2023-11-21T11:11:10;2.87;;;2.67;;
14306;SDS011;7237;49.500;11.400;2023-11-21T11:13:39;3.17;;;2.87;;
14306;SDS011;7237;49.500;11.400;2023-11-21T11:16:10;3.53;;;3.13;;
14306;SDS011;7237;49.500;11.400;2023-11-21T11:18:43;3.17;;;2.67;;
14306;SDS011;7237;49.500;11.400;2023-11-21T11:21:15;2.60;;;2.40;;
14306;SDS011;7237;49.500;11.400;2023-11-21T11:23:49;2.60;;;2.40;;
14306;SDS011;7237;49.500;11.400;2023-11-21T11:26:22;4.30;;;2.87;;
14306;SDS011;7237;49.500;11.400;2023-11-21T11:28:55;2.60;;;2.40;;
14306;SDS011;7237;49.500;11.400;2023-11-21T11:31:26;5.33;;;2.40;;
14306;SDS011;7237;49.500;11.400;2023-11-21T11:33:57;2.53;;;2.27;;
14306;SDS011;7237;49.500;11.400;2023-11-21T11:36:26;2.90;;;2.60;;
14306;SDS011;7237;49.500;11.400;2023-11-21T11:38:54;3.30;;;2.90;;
14306;SDS011;7237;49.500;11.400;2023-11-21T11:41:25;2.67;;;2.17;;
14306;SDS011;7237;49.500;11.400;2023-11-21T11:43:52;2.63;;;2.10;;
14306;SDS011;7237;49.500;11.400;2023-11-21T11:46:19;2.30;;;1.93;;
14306;SDS011;7237;49.500;11.400;2023-11-21T11:48:47;3.70;;;2.20;;
14306;SDS011;7237;49.500;11.400;2023-11-21T11:51:16;2.97;;;2.23;;
14306;SDS011;7237;49.500;11.400;2023-11-21T11:53:45;4.80;;;2.30;;
14306;SDS011;7237;49.500;11.400;2023-11-21T11:59:02;1.97;;;1.80;;
14306;SDS011;7237;49.500;11.400;2023-11-21T12:01:32;2.33;;;1.40;;
14306;SDS011;7237;49.500;11.400;2023-11-21T12:06:46;1.80;;;1.00;;
14306;SDS011;7237;49.500;11.400;2023-11-21T12:09:17;1.43;;;1.23;;
14306;SDS011;7237;49.500;11.400;2023-11-21T12:11:45;1.40;;;1.30;;
14306;SDS011;7237;49.500;11.400;2023-11-21T12:14:13;1.20;;;1.10;;
14306;SDS011;7237;49.500;11.400;2023-11-21T12:16:40;1.27;;;1.13;;
14306;SDS011;7237;49.500;11.400;2023-11-21T12:19:07;1.57;;;1.17;;
14306;SDS011;7237;49.500;11.400;2023-11-21T12:21:35;1.20;;;1.10;;
14306;SDS011;7237;49.500;11.400;2023-11-21T12:24:04;1.30;;;1.20;;
14306;SDS011;7237;49.500;11.400;2023-11-21T12:26:33;2.60;;;1.00;;
14306;SDS011;7237;49.500;11.400;2023-11-21T12:29:01;0.80;;;0.77;;
14306;SDS011;7237;49.500;11.400;2023-11-21T12:31:29;0.70;;;0.70;;
14306;SDS011;7237;49.500;11.400;2023-11-21T12:33:56;0.70;;;0.70;;
14306;SDS011;7237;49.500;11.400;2023-11-21T12:36:23;0.97;;;0.80;;
14306;SDS011;7237;49.500;11.400;2023-11-21T12:38:51;0.50;;;0.50;;
14306;SDS011;7237;49.500;11.400;2023-11-21T12:41:20;0.97;;;0.70;;
14306;SDS011;7237;49.500;11.400;2023-11-21T12:43:47;0.90;;;0.90;;
14306;SDS011;7237;49.500;11.400;2023-11-21T12:46:14;0.73;;;0.70;;
14306;SDS011;7237;49.500;11.400;2023-11-21T12:48:42;1.53;;;0.63;;
14306;SDS011;7237;49.500;11.400;2023-11-21T12:51:11;1.07;;;0.87;;
14306;SDS011;7237;49.500;11.400;2023-11-21T12:53:39;0.97;;;0.80;;
14306;SDS011;7237;49.500;11.400;2023-11-21T12:56:06;1.57;;;1.40;;
14306;SDS011;7237;49.500;11.400;2023-11-21T12:58:36;1.97;;;0.83;;
14306;SDS011;7237;49.500;11.400;2023-11-21T13:01:04;1.23;;;0.90;;
14306;SDS011;7237;49.500;11.400;2023-11-21T13:03:36;1.00;;;0.90;;
14306;SDS011;7237;49.500;11.400;2023-11-21T13:06:05;1.20;;;1.10;;
14306;SDS011;7237;49.500;11.400;2023-11-21T13:08:33;2.80;;;1.20;;
14306;SDS011;7237;49.500;11.400;2023-11-21T13:11:04;1.03;;;1.00;;
14306;SDS011;7237;49.500;11.400;2023-11-21T13:13:32;2.20;;;1.13;;
14306;SDS011;7237;49.500;11.400;2023-11-21T13:16:01;2.17;;;1.20;;
14306;SDS011;7237;49.500;11.400;2023-11-21T13:18:29;1.97;;;1.27;;
14306;SDS011;7237;49.500;11.400;2023-11-21T13:20:57;2.20;;;1.10;;
14306;SDS011;7237;49.500;11.400;2023-11-21T13:23:25;1.50;;;0.90;;
14306;SDS011;7237;49.500;11.400;2023-11-21T13:25:54;0.87;;;0.87;;
14306;SDS011;7237;49.500;11.400;2023-11-21T13:28:21;1.73;;;1.20;;
14306;SDS011;7237;49.500;11.400;2023-11-21T13:30:49;1.00;;;0.93;;
14306;SDS011;7237;49.500;11.400;2023-11-21T13:33:19;1.37;;;1.27;;
14306;SDS011;7237;49.500;11.400;2023-11-21T13:35:52;2.23;;;1.50;;
14306;SDS011;7237;49.500;11.400;2023-11-21T13:38:21;1.67;;;1.40;;
14306;SDS011;7237;49.500;11.400;2023-11-21T13:40:50;4.07;;;1.73;;
14306;SDS011;7237;49.500;11.400;2023-11-21T13:43:19;2.73;;;1.40;;
14306;SDS011;7237;49.500;11.400;2023-11-21T13:45:46;2.23;;;1.40;;
14306;SDS011;7237;49.500;11.400;2023-11-21T13:48:16;1.40;;;1.13;;
14306;SDS011;7237;49.500;11.400;2023-11-21T13:50:51;1.50;;;1.40;;
14306;SDS011;7237;49.500;11.400;2023-11-21T13:53:23;1.70;;;1.30;;
14306;SDS011;7237;49.500;11.400;2023-11-21T13:55:51;1.30;;;1.20;;
14306;SDS011;7237;49.500;11.400;2023-11-21T13:58:19;3.33;;;1.47;;
14306;SDS011;7237;49.500;11.400;2023-11-21T14:00:51;1.43;;;1.33;;
14306;SDS011;7237;49.500;11.400;2023-11-21T14:03:21;2.30;;;2.10;;
14306;SDS011;7237;49.500;11.400;2023-11-21T14:05:51;2.07;;;1.97;;
14306;SDS011;7237;49.500;11.400;2023-11-21T14:08:20;2.43;;;2.20;;
14306;SDS011;7237;49.500;11.400;2023-11-21T14:10:53;3.43;;;2.13;;
14306;SDS011;7237;49.500;11.400;2023-11-21T14:13:22;2.90;;;2.03;;
14306;SDS011;7237;49.500;11.400;2023-11-21T14:15:50;2.20;;;1.70;;
14306;SDS011;7237;49.500;11.400;2023-11-21T14:18:22;3.13;;;2.00;;
14306;SDS011;7237;49.500;11.400;2023-11-21T14:20:56;2.60;;;1.90;;
14306;SDS011;7237;49.500;11.400;2023-11-21T14:23:24;2.47;;;1.63;;
14306;SDS011;7237;49.500;11.400;2023-11-21T14:25:51;2.90;;;1.93;;
14306;SDS011;7237;49.500;11.400;2023-11-21T14:28:18;3.80;;;2.00;;
14306;SDS011;7237;49.500;11.400;2023-11-21T14:30:45;3.53;;;1.90;;
14306;SDS011;7237;49.500;11.400;2023-11-21T14:33:12;2.33;;;1.60;;
14306;SDS011;7237;49.500;11.400;2023-11-21T14:35:41;2.50;;;1.70;;
14306;SDS011;7237;49.500;11.400;2023-11-21T14:38:09;2.67;;;1.80;;
14306;SDS011;7237;49.500;11.400;2023-11-21T14:40:39;2.77;;;1.93;;
14306;SDS011;7237;49.500;11.400;2023-11-21T14:43:06;2.20;;;2.00;;
14306;SDS011;7237;49.500;11.400;2023-11-21T14:45:33;4.73;;;2.37;;
14306;SDS011;7237;49.500;11.400;2023-11-21T14:48:00;4.17;;;2.83;;
14306;SDS011;7237;49.500;11.400;2023-11-21T14:50:33;1.97;;;1.83;;
14306;SDS011;7237;49.500;11.400;2023-11-21T14:53:35;3.63;;;1.90;;
14306;SDS011;7237;49.500;11.400;2023-11-21T14:56:08;3.50;;;2.47;;
14306;SDS011;7237;49.500;11.400;2023-11-21T14:58:36;3.03;;;1.87;;